sensor_id;sensor_type;location;lat;lon;timestamp;P1;durP1;ratioP1;P2;durP2;ratioP2
1879;SDS011;49285;49.002;8.390;2024-02-28T00:02:00;27.10;;;18.67;;
1879;SDS011;49285;49.002;8.390;2024-02-28T00:04:26;26.00;;;17.97;;
1879;SDS011;49285;49.002;8.390;2024-02-28T00:06:51;21.90;;;17.30;;
1879;SDS011;49285;49.002;8.390;2024-02-28T00:09:17;22.50;;;18.17;;
1879;SDS011;49285;49.002;8.390;2024-02-28T00:11:43;30.77;;;19.00;;
1879;SDS011;49285;49.002;8.390;2024-02-28T00:14:10;23.43;;;17.37;;
1879;SDS011;49285;49.002;8.390;2024-02-28T00:16:36;24.50;;;17.70;;
1879;SDS011;49285;49.002;8.390;2024-02-28T00:19:06;26.20;;;19.80;;
1879;SDS011;49285;49.002;8.390;2024-02-28T00:21:32;23.03;;;18.57;;
1879;SDS011;49285;49.002;8.390;2024-02-28T00:23:57;27.43;;;17.83;;
1879;SDS011;49285;49.002;8.390;2024-02-28T00:26:23;26.47;;;19.63;;
1879;SDS011;49285;49.002;8.390;2024-02-28T00:28:48;27.47;;;18.50;;
1879;SDS011;49285;49.002;8.390;2024-02-28T00:31:14;24.63;;;17.07;;
1879;SDS011;49285;49.002;8.390;2024-02-28T00:33:39;22.87;;;17.10;;
1879;SDS011;49285;49.002;8.390;2024-02-28T00:36:05;24.93;;;17.27;;
1879;SDS011;49285;49.002;8.390;2024-02-28T00:38:31;24.40;;;16.93;;
1879;SDS011;49285;49.002;8.390;2024-02-28T00:40:56;22.00;;;16.73;;
1879;SDS011;49285;49.002;8.390;2024-02-28T00:43:22;25.60;;;17.90;;
1879;SDS011;49285;49.002;8.390;2024-02-28T00:45:47;22.53;;;17.47;;
1879;SDS011;49285;49.002;8.390;2024-02-28T00:48:13;21.67;;;17.80;;
1879;SDS011;49285;49.002;8.390;2024-02-28T00:50:39;22.50;;;17.63;;
1879;SDS011;49285;49.002;8.390;2024-02-28T00:53:04;22.40;;;16.30;;
1879;SDS011;49285;49.002;8.390;2024-02-28T00:55:30;22.40;;;17.17;;
1879;SDS011;49285;49.002;8.390;2024-02-28T00:57:55;22.93;;;17.17;;
1879;SDS011;49285;49.002;8.390;2024-02-28T01:00:21;19.93;;;16.50;;
1879;SDS011;49285;49.002;8.390;2024-02-28T01:02:47;20.83;;;16.07;;
1879;SDS011;49285;49.002;8.390;2024-02-28T01:05:12;20.87;;;16.17;;
1879;SDS011;49285;49.002;8.390;2024-02-28T01:07:38;22.70;;;17.03;;
1879;SDS011;49285;49.002;8.390;2024-02-28T01:10:04;26.23;;;18.03;;
1879;SDS011;49285;49.002;8.390;2024-02-28T01:12:31;22.60;;;16.23;;
1879;SDS011;49285;49.002;8.390;2024-02-28T01:14:57;20.37;;;16.40;;
1879;SDS011;49285;49.002;8.390;2024-02-28T01:17:22;23.37;;;18.00;;
1879;SDS011;49285;49.002;8.390;2024-02-28T01:19:48;25.17;;;18.47;;
1879;SDS011;49285;49.002;8.390;2024-02-28T01:22:13;23.60;;;17.27;;
1879;SDS011;49285;49.002;8.390;2024-02-28T01:24:39;22.30;;;18.03;;
1879;SDS011;49285;49.002;8.390;2024-02-28T01:27:05;24.23;;;18.17;;
1879;SDS011;49285;49.002;8.390;2024-02-28T01:29:31;23.47;;;16.77;;
1879;SDS011;49285;49.002;8.390;2024-02-28T01:31:56;23.70;;;17.13;;
1879;SDS011;49285;49.002;8.390;2024-02-28T01:34:22;23.17;;;17.33;;
1879;SDS011;49285;49.002;8.390;2024-02-28T01:36:47;21.87;;;17.13;;
1879;SDS011;49285;49.002;8.390;2024-02-28T01:39:13;22.97;;;16.23;;
1879;SDS011;49285;49.002;8.390;2024-02-28T01:41:39;22.90;;;17.50;;
1879;SDS011;49285;49.002;8.390;2024-02-28T01:44:04;21.90;;;17.47;;
1879;SDS011;49285;49.002;8.390;2024-02-28T01:46:30;24.10;;;17.00;;
1879;SDS011;49285;49.002;8.390;2024-02-28T01:48:57;25.97;;;18.33;;
1879;SDS011;49285;49.002;8.390;2024-02-28T01:51:24;27.33;;;19.07;;
1879;SDS011;49285;49.002;8.390;2024-02-28T01:53:52;25.23;;;17.40;;
1879;SDS011;49285;49.002;8.390;2024-02-28T01:56:18;28.40;;;19.17;;
1879;SDS011;49285;49.002;8.390;2024-02-28T01:58:46;25.67;;;19.00;;
1879;SDS011;49285;49.002;8.390;2024-02-28T02:01:15;26.83;;;18.07;;
1879;SDS011;49285;49.002;8.390;2024-02-28T02:03:44;26.77;;;19.77;;
1879;SDS011;49285;49.002;8.390;2024-02-28T02:06:10;27.80;;;19.50;;
1879;SDS011;49285;49.002;8.390;2024-02-28T02:08:36;24.67;;;18.07;;
1879;SDS011;49285;49.002;8.390;2024-02-28T02:11:02;28.73;;;20.47;;
1879;SDS011;49285;49.002;8.390;2024-02-28T02:13:29;25.17;;;19.17;;
1879;SDS011;49285;49.002;8.390;2024-02-28T02:15:54;28.90;;;19.80;;
1879;SDS011;49285;49.002;8.390;2024-02-28T02:18:20;28.20;;;21.00;;
1879;SDS011;49285;49.002;8.390;2024-02-28T02:20:46;27.43;;;19.20;;
1879;SDS011;49285;49.002;8.390;2024-02-28T02:23:23;27.87;;;20.23;;
1879;SDS011;49285;49.002;8.390;2024-02-28T02:25:49;29.37;;;19.90;;
1879;SDS011;49285;49.002;8.390;2024-02-28T02:28:15;27.10;;;18.67;;
1879;SDS011;49285;49.002;8.390;2024-02-28T02:30:41;30.00;;;21.53;;
1879;SDS011;49285;49.002;8.390;2024-02-28T02:33:07;29.53;;;19.90;;
1879;SDS011;49285;49.002;8.390;2024-02-28T02:35:33;27.83;;;21.40;;
1879;SDS011;49285;49.002;8.390;2024-02-28T02:37:59;28.57;;;21.20;;
1879;SDS011;49285;49.002;8.390;2024-02-28T02:40:25;27.40;;;21.87;;
1879;SDS011;49285;49.002;8.390;2024-02-28T02:42:50;33.13;;;22.23;;
1879;SDS011;49285;49.002;8.390;2024-02-28T02:45:16;30.23;;;22.63;;
1879;SDS011;49285;49.002;8.390;2024-02-28T02:47:42;33.30;;;22.60;;
1879;SDS011;49285;49.002;8.390;2024-02-28T02:50:10;33.77;;;22.80;;
1879;SDS011;49285;49.002;8.390;2024-02-28T02:52:36;34.37;;;24.57;;
1879;SDS011;49285;49.002;8.390;2024-02-28T02:55:02;38.27;;;23.67;;
1879;SDS011;49285;49.002;8.390;2024-02-28T02:57:28;32.73;;;22.87;;
1879;SDS011;49285;49.002;8.390;2024-02-28T02:59:55;34.00;;;22.93;;
1879;SDS011;49285;49.002;8.390;2024-02-28T03:02:21;34.23;;;24.10;;
1879;SDS011;49285;49.002;8.390;2024-02-28T03:04:47;33.03;;;23.53;;
1879;SDS011;49285;49.002;8.390;2024-02-28T03:07:12;34.20;;;23.53;;
1879;SDS011;49285;49.002;8.390;2024-02-28T03:09:38;36.33;;;26.17;;
1879;SDS011;49285;49.002;8.390;2024-02-28T03:12:03;39.90;;;24.57;;
1879;SDS011;49285;49.002;8.390;2024-02-28T03:14:29;36.20;;;26.07;;
1879;SDS011;49285;49.002;8.390;2024-02-28T03:16:54;36.33;;;24.77;;
1879;SDS011;49285;49.002;8.390;2024-02-28T03:19:20;33.13;;;23.77;;
1879;SDS011;49285;49.002;8.390;2024-02-28T03:21:46;34.93;;;24.10;;
1879;SDS011;49285;49.002;8.390;2024-02-28T03:24:12;33.00;;;23.93;;
1879;SDS011;49285;49.002;8.390;2024-02-28T03:26:38;35.43;;;27.07;;
1879;SDS011;49285;49.002;8.390;2024-02-28T03:29:03;35.70;;;24.70;;
1879;SDS011;49285;49.002;8.390;2024-02-28T03:31:29;33.23;;;22.83;;
1879;SDS011;49285;49.002;8.390;2024-02-28T03:33:54;33.50;;;23.77;;
1879;SDS011;49285;49.002;8.390;2024-02-28T03:36:20;37.20;;;24.43;;
1879;SDS011;49285;49.002;8.390;2024-02-28T03:38:46;38.93;;;27.53;;
1879;SDS011;49285;49.002;8.390;2024-02-28T03:41:11;37.87;;;25.80;;
1879;SDS011;49285;49.002;8.390;2024-02-28T03:43:37;36.67;;;27.70;;
1879;SDS011;49285;49.002;8.390;2024-02-28T03:46:03;42.50;;;27.33;;
1879;SDS011;49285;49.002;8.390;2024-02-28T03:48:28;41.43;;;28.47;;
1879;SDS011;49285;49.002;8.390;2024-02-28T03:50:54;38.17;;;25.57;;
1879;SDS011;49285;49.002;8.390;2024-02-28T03:53:19;38.00;;;26.13;;
1879;SDS011;49285;49.002;8.390;2024-02-28T03:55:45;39.00;;;25.87;;
1879;SDS011;49285;49.002;8.390;2024-02-28T03:58:11;39.47;;;26.47;;
1879;SDS011;49285;49.002;8.390;2024-02-28T04:00:37;45.77;;;28.40;;
1879;SDS011;49285;49.002;8.390;2024-02-28T04:03:03;45.50;;;29.10;;
1879;SDS011;49285;49.002;8.390;2024-02-28T04:05:29;46.77;;;28.37;;
1879;SDS011;49285;49.002;8.390;2024-02-28T04:07:55;42.53;;;27.30;;
1879;SDS011;49285;49.002;8.390;2024-02-28T04:10:20;37.63;;;26.03;;
1879;SDS011;49285;49.002;8.390;2024-02-28T04:12:46;37.57;;;26.37;;
1879;SDS011;49285;49.002;8.390;2024-02-28T04:15:12;41.10;;;27.13;;
1879;SDS011;49285;49.002;8.390;2024-02-28T04:17:38;37.50;;;25.30;;
1879;SDS011;49285;49.002;8.390;2024-02-28T04:20:11;42.17;;;28.47;;
1879;SDS011;49285;49.002;8.390;2024-02-28T04:22:37;41.00;;;27.47;;
1879;SDS011;49285;49.002;8.390;2024-02-28T04:25:07;40.40;;;27.07;;
1879;SDS011;49285;49.002;8.390;2024-02-28T04:27:34;43.70;;;28.80;;
1879;SDS011;49285;49.002;8.390;2024-02-28T04:30:00;38.80;;;26.90;;
1879;SDS011;49285;49.002;8.390;2024-02-28T04:32:26;38.17;;;26.97;;
1879;SDS011;49285;49.002;8.390;2024-02-28T04:34:51;37.77;;;26.17;;
1879;SDS011;49285;49.002;8.390;2024-02-28T04:37:17;39.40;;;25.03;;
1879;SDS011;49285;49.002;8.390;2024-02-28T04:39:42;41.27;;;28.93;;
1879;SDS011;49285;49.002;8.390;2024-02-28T04:42:08;38.77;;;26.33;;
1879;SDS011;49285;49.002;8.390;2024-02-28T04:44:33;41.43;;;25.93;;
1879;SDS011;49285;49.002;8.390;2024-02-28T04:46:59;41.00;;;27.60;;
1879;SDS011;49285;49.002;8.390;2024-02-28T04:49:24;43.23;;;26.93;;
1879;SDS011;49285;49.002;8.390;2024-02-28T04:51:51;37.97;;;26.57;;
1879;SDS011;49285;49.002;8.390;2024-02-28T04:54:16;41.37;;;27.33;;
1879;SDS011;49285;49.002;8.390;2024-02-28T04:56:42;36.23;;;24.70;;
1879;SDS011;49285;49.002;8.390;2024-02-28T04:59:08;39.20;;;27.17;;
1879;SDS011;49285;49.002;8.390;2024-02-28T05:01:36;42.13;;;28.50;;
1879;SDS011;49285;49.002;8.390;2024-02-28T05:04:04;39.50;;;26.40;;
1879;SDS011;49285;49.002;8.390;2024-02-28T05:06:33;35.07;;;24.97;;
1879;SDS011;49285;49.002;8.390;2024-02-28T05:08:58;38.93;;;26.53;;
1879;SDS011;49285;49.002;8.390;2024-02-28T05:11:24;43.10;;;26.77;;
1879;SDS011;49285;49.002;8.390;2024-02-28T05:13:50;43.10;;;27.77;;
1879;SDS011;49285;49.002;8.390;2024-02-28T05:16:15;41.70;;;27.63;;
1879;SDS011;49285;49.002;8.390;2024-02-28T05:18:41;38.80;;;26.07;;
1879;SDS011;49285;49.002;8.390;2024-02-28T05:21:10;37.80;;;26.20;;
1879;SDS011;49285;49.002;8.390;2024-02-28T05:23:36;38.67;;;25.60;;
1879;SDS011;49285;49.002;8.390;2024-02-28T05:26:02;35.77;;;24.40;;
1879;SDS011;49285;49.002;8.390;2024-02-28T05:28:32;36.47;;;25.10;;
1879;SDS011;49285;49.002;8.390;2024-02-28T05:30:59;37.57;;;23.77;;
1879;SDS011;49285;49.002;8.390;2024-02-28T05:33:44;38.73;;;24.77;;
1879;SDS011;49285;49.002;8.390;2024-02-28T05:36:10;39.10;;;26.40;;
1879;SDS011;49285;49.002;8.390;2024-02-28T05:38:35;35.37;;;25.17;;
1879;SDS011;49285;49.002;8.390;2024-02-28T05:41:01;38.90;;;25.50;;
1879;SDS011;49285;49.002;8.390;2024-02-28T05:43:26;37.63;;;25.97;;
1879;SDS011;49285;49.002;8.390;2024-02-28T05:45:52;40.97;;;28.03;;
1879;SDS011;49285;49.002;8.390;2024-02-28T05:48:18;41.60;;;27.07;;
1879;SDS011;49285;49.002;8.390;2024-02-28T05:50:43;40.20;;;27.17;;
1879;SDS011;49285;49.002;8.390;2024-02-28T05:53:09;43.07;;;27.53;;
1879;SDS011;49285;49.002;8.390;2024-02-28T05:55:35;39.37;;;26.53;;
1879;SDS011;49285;49.002;8.390;2024-02-28T05:58:00;41.30;;;26.00;;
1879;SDS011;49285;49.002;8.390;2024-02-28T06:00:26;41.43;;;27.90;;
1879;SDS011;49285;49.002;8.390;2024-02-28T06:02:53;38.03;;;26.30;;
1879;SDS011;49285;49.002;8.390;2024-02-28T06:05:18;45.37;;;28.70;;
1879;SDS011;49285;49.002;8.390;2024-02-28T06:07:44;44.57;;;29.80;;
1879;SDS011;49285;49.002;8.390;2024-02-28T06:10:10;43.40;;;27.67;;
1879;SDS011;49285;49.002;8.390;2024-02-28T06:12:35;42.53;;;27.90;;
1879;SDS011;49285;49.002;8.390;2024-02-28T06:15:01;44.53;;;28.23;;
1879;SDS011;49285;49.002;8.390;2024-02-28T06:17:27;44.90;;;28.83;;
1879;SDS011;49285;49.002;8.390;2024-02-28T06:19:53;42.83;;;28.67;;
1879;SDS011;49285;49.002;8.390;2024-02-28T06:22:18;44.27;;;27.70;;
1879;SDS011;49285;49.002;8.390;2024-02-28T06:24:44;45.43;;;29.80;;
1879;SDS011;49285;49.002;8.390;2024-02-28T06:27:10;42.57;;;28.07;;
1879;SDS011;49285;49.002;8.390;2024-02-28T06:29:38;43.67;;;28.27;;
1879;SDS011;49285;49.002;8.390;2024-02-28T06:32:04;42.87;;;28.10;;
1879;SDS011;49285;49.002;8.390;2024-02-28T06:34:30;50.53;;;29.60;;
1879;SDS011;49285;49.002;8.390;2024-02-28T06:36:56;50.43;;;30.90;;
1879;SDS011;49285;49.002;8.390;2024-02-28T06:39:21;47.57;;;29.73;;
1879;SDS011;49285;49.002;8.390;2024-02-28T06:41:47;43.43;;;29.03;;
1879;SDS011;49285;49.002;8.390;2024-02-28T06:44:15;46.43;;;29.03;;
1879;SDS011;49285;49.002;8.390;2024-02-28T06:46:41;48.63;;;30.40;;
1879;SDS011;49285;49.002;8.390;2024-02-28T06:49:07;52.13;;;30.23;;
1879;SDS011;49285;49.002;8.390;2024-02-28T06:51:32;49.30;;;29.10;;
1879;SDS011;49285;49.002;8.390;2024-02-28T06:53:58;48.43;;;29.27;;
1879;SDS011;49285;49.002;8.390;2024-02-28T06:56:23;51.00;;;30.00;;
1879;SDS011;49285;49.002;8.390;2024-02-28T06:58:49;44.90;;;28.10;;
1879;SDS011;49285;49.002;8.390;2024-02-28T07:01:15;50.40;;;30.23;;
1879;SDS011;49285;49.002;8.390;2024-02-28T07:03:40;52.83;;;31.27;;
1879;SDS011;49285;49.002;8.390;2024-02-28T07:06:06;50.13;;;31.00;;
1879;SDS011;49285;49.002;8.390;2024-02-28T07:08:32;52.27;;;30.80;;
1879;SDS011;49285;49.002;8.390;2024-02-28T07:10:57;54.60;;;31.27;;
1879;SDS011;49285;49.002;8.390;2024-02-28T07:13:23;57.40;;;32.40;;
1879;SDS011;49285;49.002;8.390;2024-02-28T07:15:49;51.67;;;30.30;;
1879;SDS011;49285;49.002;8.390;2024-02-28T07:18:14;48.43;;;30.77;;
1879;SDS011;49285;49.002;8.390;2024-02-28T07:20:40;47.97;;;29.80;;
1879;SDS011;49285;49.002;8.390;2024-02-28T07:23:05;51.07;;;30.37;;
1879;SDS011;49285;49.002;8.390;2024-02-28T07:25:31;51.53;;;31.30;;
1879;SDS011;49285;49.002;8.390;2024-02-28T07:27:58;48.10;;;31.60;;
1879;SDS011;49285;49.002;8.390;2024-02-28T07:30:27;53.47;;;30.50;;
1879;SDS011;49285;49.002;8.390;2024-02-28T07:32:53;50.17;;;31.00;;
1879;SDS011;49285;49.002;8.390;2024-02-28T07:35:19;44.73;;;27.80;;
1879;SDS011;49285;49.002;8.390;2024-02-28T07:37:45;43.33;;;29.57;;
1879;SDS011;49285;49.002;8.390;2024-02-28T07:40:11;45.67;;;28.37;;
1879;SDS011;49285;49.002;8.390;2024-02-28T07:42:37;49.63;;;30.57;;
1879;SDS011;49285;49.002;8.390;2024-02-28T07:45:03;44.13;;;28.83;;
1879;SDS011;49285;49.002;8.390;2024-02-28T07:47:29;41.73;;;26.63;;
1879;SDS011;49285;49.002;8.390;2024-02-28T07:49:54;44.20;;;27.40;;
1879;SDS011;49285;49.002;8.390;2024-02-28T07:52:20;46.13;;;29.73;;
1879;SDS011;49285;49.002;8.390;2024-02-28T07:54:46;45.73;;;28.27;;
1879;SDS011;49285;49.002;8.390;2024-02-28T07:57:11;47.93;;;30.80;;
1879;SDS011;49285;49.002;8.390;2024-02-28T07:59:41;48.80;;;30.53;;
1879;SDS011;49285;49.002;8.390;2024-02-28T08:02:07;46.47;;;28.03;;
1879;SDS011;49285;49.002;8.390;2024-02-28T08:04:33;45.43;;;29.93;;
1879;SDS011;49285;49.002;8.390;2024-02-28T08:06:59;52.93;;;32.27;;
1879;SDS011;49285;49.002;8.390;2024-02-28T08:09:25;45.17;;;27.33;;
1879;SDS011;49285;49.002;8.390;2024-02-28T08:11:50;42.87;;;28.37;;
1879;SDS011;49285;49.002;8.390;2024-02-28T08:14:16;41.70;;;28.67;;
1879;SDS011;49285;49.002;8.390;2024-02-28T08:16:42;48.07;;;29.40;;
1879;SDS011;49285;49.002;8.390;2024-02-28T08:19:08;41.03;;;27.90;;
1879;SDS011;49285;49.002;8.390;2024-02-28T08:21:33;42.00;;;26.97;;
1879;SDS011;49285;49.002;8.390;2024-02-28T08:23:59;38.80;;;26.90;;
1879;SDS011;49285;49.002;8.390;2024-02-28T08:26:27;40.00;;;25.50;;
1879;SDS011;49285;49.002;8.390;2024-02-28T08:28:53;46.17;;;27.33;;
1879;SDS011;49285;49.002;8.390;2024-02-28T08:31:18;41.23;;;25.63;;
1879;SDS011;49285;49.002;8.390;2024-02-28T08:33:44;41.60;;;26.30;;
1879;SDS011;49285;49.002;8.390;2024-02-28T08:36:09;38.63;;;25.67;;
1879;SDS011;49285;49.002;8.390;2024-02-28T08:38:35;37.13;;;25.67;;
1879;SDS011;49285;49.002;8.390;2024-02-28T08:41:03;36.53;;;25.33;;
1879;SDS011;49285;49.002;8.390;2024-02-28T08:43:29;38.63;;;25.90;;
1879;SDS011;49285;49.002;8.390;2024-02-28T08:45:55;38.90;;;26.40;;
1879;SDS011;49285;49.002;8.390;2024-02-28T08:48:21;45.50;;;24.20;;
1879;SDS011;49285;49.002;8.390;2024-02-28T08:50:46;36.80;;;24.13;;
1879;SDS011;49285;49.002;8.390;2024-02-28T08:53:12;34.43;;;23.73;;
1879;SDS011;49285;49.002;8.390;2024-02-28T08:55:37;36.07;;;24.80;;
1879;SDS011;49285;49.002;8.390;2024-02-28T08:58:03;41.57;;;25.43;;
1879;SDS011;49285;49.002;8.390;2024-02-28T09:00:29;37.27;;;24.60;;
1879;SDS011;49285;49.002;8.390;2024-02-28T09:02:55;34.13;;;23.10;;
1879;SDS011;49285;49.002;8.390;2024-02-28T09:05:20;35.83;;;23.57;;
1879;SDS011;49285;49.002;8.390;2024-02-28T09:07:46;38.37;;;23.83;;
1879;SDS011;49285;49.002;8.390;2024-02-28T09:10:16;34.80;;;22.40;;
1879;SDS011;49285;49.002;8.390;2024-02-28T09:12:46;33.00;;;23.33;;
1879;SDS011;49285;49.002;8.390;2024-02-28T09:15:12;31.80;;;23.47;;
1879;SDS011;49285;49.002;8.390;2024-02-28T09:17:37;33.23;;;21.87;;
1879;SDS011;49285;49.002;8.390;2024-02-28T09:20:03;37.33;;;25.50;;
1879;SDS011;49285;49.002;8.390;2024-02-28T09:22:31;32.90;;;23.10;;
1879;SDS011;49285;49.002;8.390;2024-02-28T09:24:57;37.90;;;23.60;;
1879;SDS011;49285;49.002;8.390;2024-02-28T09:27:22;31.67;;;21.90;;
1879;SDS011;49285;49.002;8.390;2024-02-28T09:29:49;31.93;;;22.43;;
1879;SDS011;49285;49.002;8.390;2024-02-28T09:32:15;31.73;;;21.40;;
1879;SDS011;49285;49.002;8.390;2024-02-28T09:34:41;31.07;;;21.23;;
1879;SDS011;49285;49.002;8.390;2024-02-28T09:37:06;36.00;;;24.47;;
1879;SDS011;49285;49.002;8.390;2024-02-28T09:39:32;30.23;;;21.17;;
1879;SDS011;49285;49.002;8.390;2024-02-28T09:41:57;28.77;;;22.00;;
1879;SDS011;49285;49.002;8.390;2024-02-28T09:44:23;32.20;;;22.67;;
1879;SDS011;49285;49.002;8.390;2024-02-28T09:46:52;35.03;;;22.57;;
1879;SDS011;49285;49.002;8.390;2024-02-28T09:49:18;29.97;;;20.20;;
1879;SDS011;49285;49.002;8.390;2024-02-28T09:51:44;33.50;;;21.80;;
1879;SDS011;49285;49.002;8.390;2024-02-28T09:54:17;34.60;;;21.40;;
1879;SDS011;49285;49.002;8.390;2024-02-28T09:56:42;33.27;;;23.37;;
1879;SDS011;49285;49.002;8.390;2024-02-28T09:59:08;37.00;;;24.20;;
1879;SDS011;49285;49.002;8.390;2024-02-28T10:01:37;33.07;;;24.47;;
1879;SDS011;49285;49.002;8.390;2024-02-28T10:04:11;33.80;;;22.50;;
1879;SDS011;49285;49.002;8.390;2024-02-28T10:06:41;30.13;;;21.67;;
1879;SDS011;49285;49.002;8.390;2024-02-28T10:09:06;30.33;;;21.83;;
1879;SDS011;49285;49.002;8.390;2024-02-28T10:11:32;42.77;;;23.33;;
1879;SDS011;49285;49.002;8.390;2024-02-28T10:14:00;30.33;;;21.23;;
1879;SDS011;49285;49.002;8.390;2024-02-28T10:16:26;28.30;;;20.50;;
1879;SDS011;49285;49.002;8.390;2024-02-28T10:18:52;29.60;;;21.00;;
1879;SDS011;49285;49.002;8.390;2024-02-28T10:21:18;31.97;;;22.80;;
1879;SDS011;49285;49.002;8.390;2024-02-28T10:23:44;33.27;;;22.07;;
1879;SDS011;49285;49.002;8.390;2024-02-28T10:26:13;30.17;;;21.63;;
1879;SDS011;49285;49.002;8.390;2024-02-28T10:28:42;29.83;;;22.07;;
1879;SDS011;49285;49.002;8.390;2024-02-28T10:31:08;30.47;;;21.17;;
1879;SDS011;49285;49.002;8.390;2024-02-28T10:33:35;30.37;;;21.30;;
1879;SDS011;49285;49.002;8.390;2024-02-28T10:36:04;34.23;;;23.87;;
1879;SDS011;49285;49.002;8.390;2024-02-28T10:38:30;29.93;;;20.53;;
1879;SDS011;49285;49.002;8.390;2024-02-28T10:41:01;25.70;;;19.47;;
1879;SDS011;49285;49.002;8.390;2024-02-28T10:43:27;27.73;;;20.17;;
1879;SDS011;49285;49.002;8.390;2024-02-28T10:45:57;25.90;;;19.70;;
1879;SDS011;49285;49.002;8.390;2024-02-28T10:48:24;28.73;;;20.60;;
1879;SDS011;49285;49.002;8.390;2024-02-28T10:50:51;28.13;;;20.07;;
1879;SDS011;49285;49.002;8.390;2024-02-28T10:53:18;25.97;;;19.30;;
1879;SDS011;49285;49.002;8.390;2024-02-28T10:55:48;25.60;;;20.60;;
1879;SDS011;49285;49.002;8.390;2024-02-28T10:58:14;28.77;;;19.33;;
1879;SDS011;49285;49.002;8.390;2024-02-28T11:00:41;27.73;;;18.70;;
1879;SDS011;49285;49.002;8.390;2024-02-28T11:03:12;23.27;;;19.07;;
1879;SDS011;49285;49.002;8.390;2024-02-28T11:05:41;23.03;;;18.33;;
1879;SDS011;49285;49.002;8.390;2024-02-28T11:08:11;27.40;;;18.27;;
1879;SDS011;49285;49.002;8.390;2024-02-28T11:10:47;27.63;;;17.40;;
1879;SDS011;49285;49.002;8.390;2024-02-28T11:13:25;22.77;;;17.40;;
1879;SDS011;49285;49.002;8.390;2024-02-28T11:15:51;24.30;;;18.90;;
1879;SDS011;49285;49.002;8.390;2024-02-28T11:18:17;28.37;;;18.47;;
1879;SDS011;49285;49.002;8.390;2024-02-28T11:20:46;20.80;;;17.57;;
1879;SDS011;49285;49.002;8.390;2024-02-28T11:23:13;24.37;;;18.33;;
1879;SDS011;49285;49.002;8.390;2024-02-28T11:25:39;24.70;;;18.80;;
1879;SDS011;49285;49.002;8.390;2024-02-28T11:28:05;27.53;;;20.70;;
1879;SDS011;49285;49.002;8.390;2024-02-28T11:30:32;25.33;;;19.77;;
1879;SDS011;49285;49.002;8.390;2024-02-28T11:32:57;29.00;;;21.10;;
1879;SDS011;49285;49.002;8.390;2024-02-28T11:35:24;26.53;;;19.53;;
1879;SDS011;49285;49.002;8.390;2024-02-28T11:37:56;24.50;;;17.93;;
1879;SDS011;49285;49.002;8.390;2024-02-28T11:40:25;25.80;;;18.27;;
1879;SDS011;49285;49.002;8.390;2024-02-28T11:42:52;22.13;;;17.70;;
1879;SDS011;49285;49.002;8.390;2024-02-28T11:45:18;21.20;;;16.40;;
1879;SDS011;49285;49.002;8.390;2024-02-28T11:47:44;24.93;;;17.93;;
1879;SDS011;49285;49.002;8.390;2024-02-28T11:50:10;19.83;;;15.70;;
1879;SDS011;49285;49.002;8.390;2024-02-28T11:52:35;21.33;;;16.87;;
1879;SDS011;49285;49.002;8.390;2024-02-28T11:55:01;22.37;;;17.07;;
1879;SDS011;49285;49.002;8.390;2024-02-28T11:57:27;21.93;;;16.90;;
1879;SDS011;49285;49.002;8.390;2024-02-28T11:59:54;21.00;;;16.13;;
1879;SDS011;49285;49.002;8.390;2024-02-28T12:02:22;19.67;;;16.50;;
1879;SDS011;49285;49.002;8.390;2024-02-28T12:04:50;20.10;;;15.70;;
1879;SDS011;49285;49.002;8.390;2024-02-28T12:07:17;22.97;;;14.30;;
1879;SDS011;49285;49.002;8.390;2024-02-28T12:09:43;17.13;;;14.73;;
1879;SDS011;49285;49.002;8.390;2024-02-28T12:12:09;20.33;;;14.93;;
1879;SDS011;49285;49.002;8.390;2024-02-28T12:14:37;18.60;;;14.40;;
1879;SDS011;49285;49.002;8.390;2024-02-28T12:17:10;17.50;;;14.30;;
1879;SDS011;49285;49.002;8.390;2024-02-28T12:19:36;15.13;;;13.50;;
1879;SDS011;49285;49.002;8.390;2024-02-28T12:22:01;17.07;;;15.30;;
1879;SDS011;49285;49.002;8.390;2024-02-28T12:24:27;16.67;;;14.90;;
1879;SDS011;49285;49.002;8.390;2024-02-28T12:26:53;17.90;;;15.13;;
1879;SDS011;49285;49.002;8.390;2024-02-28T12:29:18;15.17;;;13.20;;
1879;SDS011;49285;49.002;8.390;2024-02-28T12:31:44;16.50;;;14.23;;
1879;SDS011;49285;49.002;8.390;2024-02-28T12:34:09;14.57;;;13.17;;
1879;SDS011;49285;49.002;8.390;2024-02-28T12:36:35;14.13;;;12.93;;
1879;SDS011;49285;49.002;8.390;2024-02-28T12:39:00;15.03;;;13.43;;
1879;SDS011;49285;49.002;8.390;2024-02-28T12:41:26;14.80;;;13.00;;
1879;SDS011;49285;49.002;8.390;2024-02-28T12:43:52;15.47;;;14.00;;
1879;SDS011;49285;49.002;8.390;2024-02-28T12:46:18;15.27;;;13.90;;
1879;SDS011;49285;49.002;8.390;2024-02-28T12:48:44;14.73;;;13.30;;
1879;SDS011;49285;49.002;8.390;2024-02-28T12:51:13;15.53;;;14.13;;
1879;SDS011;49285;49.002;8.390;2024-02-28T12:54:00;15.80;;;14.30;;
1879;SDS011;49285;49.002;8.390;2024-02-28T12:56:26;15.70;;;14.00;;
1879;SDS011;49285;49.002;8.390;2024-02-28T12:58:51;14.93;;;13.50;;
1879;SDS011;49285;49.002;8.390;2024-02-28T13:01:17;15.13;;;13.63;;
1879;SDS011;49285;49.002;8.390;2024-02-28T13:03:42;14.93;;;13.57;;
1879;SDS011;49285;49.002;8.390;2024-02-28T13:06:08;14.50;;;13.20;;
1879;SDS011;49285;49.002;8.390;2024-02-28T13:08:33;15.73;;;14.33;;
1879;SDS011;49285;49.002;8.390;2024-02-28T13:10:59;16.27;;;14.70;;
1879;SDS011;49285;49.002;8.390;2024-02-28T13:13:24;15.40;;;13.80;;
1879;SDS011;49285;49.002;8.390;2024-02-28T13:15:50;14.97;;;13.67;;
1879;SDS011;49285;49.002;8.390;2024-02-28T13:18:15;14.57;;;13.37;;
1879;SDS011;49285;49.002;8.390;2024-02-28T13:20:41;15.53;;;14.13;;
1879;SDS011;49285;49.002;8.390;2024-02-28T13:23:07;15.40;;;14.00;;
1879;SDS011;49285;49.002;8.390;2024-02-28T13:25:32;16.53;;;15.03;;
1879;SDS011;49285;49.002;8.390;2024-02-28T13:27:58;15.20;;;13.77;;
1879;SDS011;49285;49.002;8.390;2024-02-28T13:30:23;14.87;;;13.27;;
1879;SDS011;49285;49.002;8.390;2024-02-28T13:32:49;13.57;;;12.17;;
1879;SDS011;49285;49.002;8.390;2024-02-28T13:35:14;13.30;;;11.90;;
1879;SDS011;49285;49.002;8.390;2024-02-28T13:37:40;14.40;;;12.97;;
1879;SDS011;49285;49.002;8.390;2024-02-28T13:40:06;14.10;;;12.70;;
1879;SDS011;49285;49.002;8.390;2024-02-28T13:42:32;13.83;;;12.37;;
1879;SDS011;49285;49.002;8.390;2024-02-28T13:44:58;15.30;;;13.67;;
1879;SDS011;49285;49.002;8.390;2024-02-28T13:47:24;14.40;;;12.90;;
1879;SDS011;49285;49.002;8.390;2024-02-28T13:49:49;16.30;;;13.23;;
1879;SDS011;49285;49.002;8.390;2024-02-28T13:52:15;14.57;;;12.97;;
1879;SDS011;49285;49.002;8.390;2024-02-28T13:54:41;15.67;;;14.03;;
1879;SDS011;49285;49.002;8.390;2024-02-28T13:57:07;14.10;;;12.70;;
1879;SDS011;49285;49.002;8.390;2024-02-28T13:59:33;14.53;;;13.13;;
1879;SDS011;49285;49.002;8.390;2024-02-28T14:01:59;13.70;;;12.33;;
1879;SDS011;49285;49.002;8.390;2024-02-28T14:04:25;14.70;;;13.20;;
1879;SDS011;49285;49.002;8.390;2024-02-28T14:06:50;15.33;;;13.83;;
1879;SDS011;49285;49.002;8.390;2024-02-28T14:09:16;13.80;;;12.30;;
1879;SDS011;49285;49.002;8.390;2024-02-28T14:11:42;14.80;;;12.80;;
1879;SDS011;49285;49.002;8.390;2024-02-28T14:14:07;13.40;;;11.70;;
1879;SDS011;49285;49.002;8.390;2024-02-28T14:16:36;14.43;;;12.90;;
1879;SDS011;49285;49.002;8.390;2024-02-28T14:19:02;14.80;;;13.00;;
1879;SDS011;49285;49.002;8.390;2024-02-28T14:21:28;12.53;;;10.70;;
1879;SDS011;49285;49.002;8.390;2024-02-28T14:23:53;14.77;;;12.63;;
1879;SDS011;49285;49.002;8.390;2024-02-28T14:26:19;14.10;;;12.60;;
1879;SDS011;49285;49.002;8.390;2024-02-28T14:28:44;14.50;;;10.80;;